createdAt,value
2019-01-16T00:01:38.126Z,1.50
2019-01-16T00:04:30.105Z,1.30
2019-01-16T00:07:17.927Z,1.60
2019-01-16T00:10:06.010Z,1.30
2019-01-16T00:12:44.484Z,1.47
2019-01-16T00:15:39.841Z,1.87
2019-01-16T00:18:48.055Z,1.47
2019-01-16T00:21:31.248Z,1.60
2019-01-16T00:24:19.390Z,1.30
2019-01-16T00:27:07.467Z,1.37
2019-01-16T00:29:56.679Z,1.30
2019-01-16T00:32:48.433Z,1.43
2019-01-16T00:35:30.621Z,1.30
2019-01-16T00:38:35.196Z,1.20
2019-01-16T00:41:39.482Z,1.20
2019-01-16T00:44:40.958Z,1.27
2019-01-16T00:47:25.692Z,1.30
2019-01-16T00:50:27.271Z,1.40
2019-01-16T00:53:12.069Z,1.40
2019-01-16T00:56:07.539Z,1.37
2019-01-16T00:59:08.907Z,1.43
2019-01-16T01:01:57.298Z,1.43
2019-01-16T01:04:55.371Z,1.47
2019-01-16T01:07:51.853Z,1.40
2019-01-16T01:10:30.085Z,1.43
2019-01-16T01:13:19.944Z,1.40
2019-01-16T01:16:17.457Z,1.40
2019-01-16T01:19:21.789Z,1.43
2019-01-16T01:22:08.628Z,1.30
2019-01-16T01:24:57.915Z,1.40
2019-01-16T01:27:45.643Z,1.53
2019-01-16T01:30:43.768Z,1.60
2019-01-16T01:33:33.650Z,1.50
2019-01-16T01:36:21.644Z,1.40
2019-01-16T01:39:10.806Z,1.40
2019-01-16T01:42:15.438Z,1.50
2019-01-16T01:45:04.611Z,1.53
2019-01-16T01:47:52.009Z,1.67
2019-01-16T01:50:48.355Z,1.80
2019-01-16T01:53:36.523Z,1.70
2019-01-16T01:56:33.974Z,1.50
2019-01-16T01:59:11.697Z,1.70
2019-01-16T02:01:57.352Z,1.87
2019-01-16T02:04:45.289Z,1.70
2019-01-16T02:10:33.665Z,1.90
2019-01-16T02:13:21.928Z,1.80
2019-01-16T02:16:06.366Z,1.80
2019-01-16T02:18:59.070Z,1.83
2019-01-16T02:21:47.175Z,2.03
2019-01-16T02:24:39.200Z,2.00
2019-01-16T02:27:24.205Z,2.10
2019-01-16T02:30:15.544Z,1.80
2019-01-16T02:33:10.881Z,1.60
2019-01-16T02:36:10.806Z,1.90
2019-01-16T02:38:58.593Z,2.20
2019-01-16T02:41:36.200Z,1.50
2019-01-16T02:44:37.717Z,1.70
2019-01-16T02:47:32.778Z,1.60
2019-01-16T02:50:24.981Z,1.47
2019-01-16T02:53:20.145Z,1.60
2019-01-16T02:56:21.342Z,1.70
2019-01-16T02:59:01.634Z,1.50
2019-01-16T03:01:50.898Z,2.00
2019-01-16T03:04:40.166Z,1.70
2019-01-16T03:07:41.414Z,1.80
2019-01-16T03:10:20.244Z,1.80
2019-01-16T03:13:09.418Z,2.20
2019-01-16T03:16:17.056Z,1.87
2019-01-16T03:19:24.563Z,1.83
2019-01-16T03:22:13.758Z,2.10
2019-01-16T03:25:01.026Z,2.20
2019-01-16T03:28:08.241Z,2.13
2019-01-16T03:31:15.527Z,2.30
2019-01-16T03:34:10.374Z,2.00
2019-01-16T03:37:03.730Z,2.47
2019-01-16T03:39:55.909Z,2.20
2019-01-16T03:42:28.243Z,2.40
2019-01-16T03:45:26.817Z,2.30
2019-01-16T03:48:22.927Z,2.50
2019-01-16T03:51:17.263Z,2.57
2019-01-16T03:54:23.150Z,2.70
2019-01-16T03:57:15.219Z,2.60
2019-01-16T04:00:11.370Z,2.90
2019-01-16T04:02:56.790Z,3.00
2019-01-16T04:05:42.713Z,2.93
2019-01-16T04:08:25.307Z,2.93
2019-01-16T04:11:24.936Z,2.80
2019-01-16T04:14:13.155Z,3.27
2019-01-16T04:17:01.877Z,2.80
2019-01-16T04:19:54.163Z,3.17
2019-01-16T04:22:56.890Z,3.47
2019-01-16T04:25:57.973Z,3.00
2019-01-16T04:28:57.905Z,3.17
2019-01-16T04:31:38.458Z,3.43
2019-01-16T04:34:26.490Z,3.33
2019-01-16T04:37:18.643Z,3.40
2019-01-16T04:40:06.155Z,3.90
2019-01-16T04:42:50.938Z,3.50
2019-01-16T04:45:40.080Z,3.90
2019-01-16T04:48:32.342Z,3.73
2019-01-16T04:51:20.087Z,3.93
2019-01-16T04:54:07.813Z,4.03
2019-01-16T04:59:59.632Z,3.97
2019-01-16T05:02:48.838Z,4.10
2019-01-16T05:05:49.630Z,3.97
2019-01-16T05:08:44.742Z,4.20
2019-01-16T05:11:32.991Z,4.00
2019-01-16T05:14:18.195Z,4.00
2019-01-16T05:17:07.441Z,3.47
2019-01-16T05:20:02.913Z,3.70
2019-01-16T05:22:40.421Z,3.87
2019-01-16T05:25:32.609Z,3.67
2019-01-16T05:28:30.704Z,3.70
2019-01-16T05:31:19.151Z,3.83
2019-01-16T05:34:06.926Z,4.00
2019-01-16T05:37:06.166Z,3.30
2019-01-16T05:39:56.711Z,3.53
2019-01-16T05:42:51.949Z,3.90
2019-01-16T05:45:39.990Z,4.20
2019-01-16T05:48:27.697Z,4.43
2019-01-16T05:51:19.795Z,4.00
2019-01-16T05:54:15.327Z,3.80
2019-01-16T05:57:01.361Z,4.00
2019-01-16T05:59:52.527Z,3.33
2019-01-16T06:02:40.288Z,4.60
2019-01-16T06:05:22.196Z,5.00
2019-01-16T06:08:11.359Z,4.43
2019-01-16T06:11:00.245Z,4.33
2019-01-16T06:13:48.052Z,4.53
2019-01-16T06:16:34.852Z,4.37
2019-01-16T06:19:30.070Z,4.87
2019-01-16T06:22:23.655Z,5.03
2019-01-16T06:25:12.262Z,4.33
2019-01-16T06:28:00.278Z,4.63
2019-01-16T06:30:46.459Z,4.63
2019-01-16T06:33:35.621Z,4.70
2019-01-16T06:36:31.054Z,4.63
2019-01-16T06:39:20.240Z,4.43
2019-01-16T06:42:04.126Z,4.97
2019-01-16T06:44:56.300Z,5.20
2019-01-16T06:47:41.104Z,5.10
2019-01-16T06:50:22.214Z,5.40
2019-01-16T06:53:02.550Z,5.40
2019-01-16T06:55:51.397Z,5.87
2019-01-16T06:58:39.161Z,6.47
2019-01-16T07:01:23.434Z,6.87
2019-01-16T07:04:09.160Z,6.37
2019-01-16T07:07:07.508Z,6.20
2019-01-16T07:09:56.718Z,7.23
2019-01-16T07:13:02.528Z,7.17
2019-01-16T07:16:06.681Z,7.30
2019-01-16T07:19:03.099Z,7.63
2019-01-16T07:21:52.232Z,8.70
2019-01-16T07:24:41.389Z,8.37
2019-01-16T07:27:29.647Z,7.53
2019-01-16T07:30:25.178Z,8.00
2019-01-16T07:33:13.050Z,7.87
2019-01-16T07:36:01.084Z,7.40
2019-01-16T07:38:50.263Z,8.57
2019-01-16T07:41:40.221Z,8.40
2019-01-16T07:44:27.664Z,10.17
2019-01-16T07:47:08.118Z,10.10
2019-01-16T07:50:03.182Z,10.50
2019-01-16T07:52:55.183Z,10.30
2019-01-16T07:55:43.854Z,9.43
2019-01-16T07:58:38.852Z,10.53
2019-01-16T08:01:26.625Z,10.93
2019-01-16T08:04:30.826Z,10.50
2019-01-16T08:07:30.831Z,10.97
2019-01-16T08:10:18.953Z,10.07
2019-01-16T08:13:07.085Z,10.80
2019-01-16T08:15:59.370Z,10.53
2019-01-16T08:18:57.642Z,9.53
2019-01-16T08:21:45.488Z,9.63
2019-01-16T08:24:34.693Z,10.23
2019-01-16T08:27:42.581Z,9.60
2019-01-16T08:30:30.732Z,11.27
2019-01-16T08:33:26.190Z,9.80
2019-01-16T08:36:27.408Z,9.13
2019-01-16T08:39:19.598Z,9.40
2019-01-16T08:42:07.408Z,10.00
2019-01-16T08:44:59.567Z,9.37
2019-01-16T08:47:51.585Z,8.90
2019-01-16T08:50:40.744Z,8.67
2019-01-16T08:53:45.376Z,8.03
2019-01-16T08:56:34.790Z,8.00
2019-01-16T08:59:25.059Z,8.17
2019-01-16T09:02:10.419Z,7.83
2019-01-16T09:05:05.111Z,7.70
2019-01-16T09:08:03.279Z,7.13
2019-01-16T09:10:58.766Z,7.27
2019-01-16T09:13:46.851Z,7.70
2019-01-16T09:16:39.200Z,7.23
2019-01-16T09:19:17.338Z,7.13
2019-01-16T09:22:09.425Z,7.13
2019-01-16T09:25:06.178Z,6.80
2019-01-16T09:27:54.227Z,7.37
2019-01-16T09:30:43.661Z,6.93
2019-01-16T09:33:42.114Z,6.40
2019-01-16T09:36:31.286Z,6.23
2019-01-16T09:39:14.158Z,6.67
2019-01-16T09:41:58.227Z,7.30
2019-01-16T09:44:36.326Z,6.73
2019-01-16T09:47:24.218Z,7.30
2019-01-16T09:50:13.463Z,6.77
2019-01-16T09:53:01.921Z,6.90
2019-01-16T09:56:02.069Z,7.23
2019-01-16T09:59:11.464Z,7.77
2019-01-16T10:01:59.316Z,7.37
2019-01-16T10:04:57.014Z,7.03
2019-01-16T10:07:55.254Z,7.43
2019-01-16T10:11:06.362Z,6.80
2019-01-16T10:13:54.188Z,6.87
2019-01-16T10:16:47.520Z,7.07
2019-01-16T10:19:36.285Z,7.23
2019-01-16T10:22:29.008Z,6.77
2019-01-16T10:25:21.397Z,6.23
2019-01-16T10:28:13.500Z,6.83
2019-01-16T10:31:14.713Z,6.23
2019-01-16T10:34:35.234Z,6.70
2019-01-16T10:37:36.740Z,6.70
2019-01-16T10:40:25.434Z,6.73
2019-01-16T10:43:23.889Z,6.27
2019-01-16T10:46:31.697Z,6.57
2019-01-16T10:49:31.042Z,6.33
2019-01-16T10:52:26.562Z,6.50
2019-01-16T10:55:13.841Z,6.00
2019-01-16T10:58:15.514Z,6.10
2019-01-16T11:00:58.205Z,6.17
2019-01-16T11:03:56.457Z,5.93
2019-01-16T11:06:58.194Z,6.33
2019-01-16T11:10:05.642Z,5.97
2019-01-16T11:13:01.782Z,5.83
2019-01-16T11:15:54.239Z,6.00
2019-01-16T11:18:52.834Z,6.27
2019-01-16T11:21:43.182Z,5.97
2019-01-16T11:24:44.245Z,5.73
2019-01-16T11:27:49.069Z,5.70
2019-01-16T11:30:50.645Z,5.47
2019-01-16T11:33:39.827Z,6.23
2019-01-16T11:36:32.063Z,5.73
2019-01-16T11:39:24.051Z,5.80
2019-01-16T11:42:08.914Z,5.90
2019-01-16T11:44:58.140Z,5.50
2019-01-16T11:47:50.156Z,5.93
2019-01-16T11:50:42.423Z,5.20
2019-01-16T11:53:30.255Z,5.87
2019-01-16T11:56:23.453Z,5.33
2019-01-16T11:59:25.121Z,5.70
2019-01-16T12:02:13.440Z,5.57
2019-01-16T12:05:17.727Z,4.97
2019-01-16T12:08:13.637Z,5.73
2019-01-16T12:11:18.205Z,4.90
2019-01-16T12:14:07.379Z,4.80
2019-01-16T12:16:59.339Z,4.70
2019-01-16T12:19:35.700Z,5.50
2019-01-16T12:22:24.280Z,5.07
2019-01-16T12:25:13.455Z,4.90
2019-01-16T12:27:54.170Z,4.67
2019-01-16T12:30:39.948Z,4.80
2019-01-16T12:33:20.113Z,4.60
2019-01-16T12:36:27.726Z,5.07
2019-01-16T12:39:14.405Z,4.60
2019-01-16T12:42:02.872Z,4.77
2019-01-16T12:44:47.311Z,4.37
2019-01-16T12:47:29.497Z,4.90
2019-01-16T12:50:21.598Z,4.50
2019-01-16T12:53:13.467Z,4.40
2019-01-16T12:56:02.823Z,5.03
2019-01-16T12:58:52.139Z,4.50
2019-01-16T13:01:41.456Z,4.63
2019-01-16T13:04:45.713Z,5.10
2019-01-16T13:07:53.343Z,5.03
2019-01-16T13:10:35.314Z,4.60
2019-01-16T13:13:30.557Z,4.60
2019-01-16T13:16:34.727Z,4.33
2019-01-16T13:19:24.584Z,5.50
2019-01-16T13:22:07.603Z,4.80
2019-01-16T13:24:46.671Z,4.70
2019-01-16T13:27:39.209Z,3.97
2019-01-16T13:30:29.341Z,4.40
2019-01-16T13:33:13.230Z,4.37
2019-01-16T13:36:08.803Z,4.70
2019-01-16T13:39:04.017Z,4.00
2019-01-16T13:41:54.591Z,4.80
2019-01-16T13:44:46.656Z,4.33
2019-01-16T13:47:43.684Z,4.07
2019-01-16T13:50:45.433Z,4.37
2019-01-16T13:53:40.787Z,4.27
2019-01-16T13:56:36.338Z,4.20
2019-01-16T13:59:32.186Z,3.63
2019-01-16T14:02:20.171Z,3.93
2019-01-16T14:05:09.637Z,3.70
2019-01-16T14:07:56.994Z,3.93
2019-01-16T14:11:01.929Z,3.70
2019-01-16T14:14:00.820Z,3.70
2019-01-16T14:16:53.478Z,3.43
2019-01-16T14:19:53.513Z,3.40
2019-01-16T14:22:55.354Z,3.10
2019-01-16T14:25:47.643Z,4.00
2019-01-16T14:28:45.939Z,3.90
2019-01-16T14:31:43.281Z,3.33
2019-01-16T14:34:35.636Z,4.10
2019-01-16T14:37:34.545Z,3.80
2019-01-16T14:40:21.198Z,3.70
2019-01-16T14:43:10.441Z,3.77
2019-01-16T14:46:15.151Z,3.77
2019-01-16T14:49:19.423Z,3.87
2019-01-16T14:51:59.760Z,3.87
2019-01-16T14:55:06.101Z,3.63
2019-01-16T14:57:52.595Z,4.13
2019-01-16T15:00:47.495Z,3.57
2019-01-16T15:03:55.056Z,4.03
2019-01-16T15:06:47.329Z,4.07
2019-01-16T15:09:36.630Z,3.63
2019-01-16T15:12:28.680Z,3.33
2019-01-16T15:15:36.926Z,4.27
2019-01-16T15:18:33.499Z,3.67
2019-01-16T15:21:23.896Z,3.70
2019-01-16T15:24:07.810Z,3.57
2019-01-16T15:27:09.087Z,3.77
2019-01-16T15:30:13.677Z,3.90
2019-01-16T15:33:01.414Z,4.60
2019-01-16T15:35:49.252Z,3.83
2019-01-16T15:38:37.080Z,3.80
2019-01-16T15:41:29.193Z,4.97
2019-01-16T15:44:21.441Z,4.33
2019-01-16T15:47:26.085Z,4.50
2019-01-16T15:50:13.939Z,4.13
2019-01-16T15:53:12.306Z,4.17
2019-01-16T15:55:52.492Z,5.70
2019-01-16T15:58:47.547Z,4.27
2019-01-16T16:01:27.388Z,5.17
2019-01-16T16:04:31.609Z,5.63
2019-01-16T16:07:23.691Z,6.13
2019-01-16T16:10:04.254Z,6.75
2019-01-16T16:12:51.753Z,5.20
2019-01-16T16:15:50.874Z,4.87
2019-01-16T16:18:36.831Z,4.77
2019-01-16T16:21:24.882Z,5.60
2019-01-16T16:24:26.480Z,4.73
2019-01-16T16:27:12.567Z,4.50
2019-01-16T16:30:14.060Z,4.13
2019-01-16T16:33:15.590Z,4.47
2019-01-16T16:36:17.661Z,4.33
2019-01-16T16:39:07.319Z,4.73
2019-01-16T16:42:08.848Z,3.67
2019-01-16T16:45:05.087Z,4.27
2019-01-16T16:48:03.369Z,4.13
2019-01-16T16:51:07.721Z,4.73
2019-01-16T16:53:56.919Z,4.57
2019-01-16T16:56:57.578Z,4.93
2019-01-16T16:59:56.551Z,5.23
2019-01-16T17:02:37.738Z,5.00
2019-01-16T17:05:20.247Z,5.37
2019-01-16T17:08:13.501Z,4.43
2019-01-16T17:10:56.286Z,5.20
2019-01-16T17:13:49.023Z,4.57
2019-01-16T17:16:34.045Z,5.30
2019-01-16T17:19:20.788Z,4.97
2019-01-16T17:22:22.268Z,4.80
2019-01-16T17:25:14.814Z,5.50
2019-01-16T17:28:02.893Z,4.83
2019-01-16T17:31:03.466Z,4.90
2019-01-16T17:33:51.652Z,5.30
2019-01-16T17:36:43.774Z,5.03
2019-01-16T17:39:48.581Z,5.80
2019-01-16T17:42:41.191Z,4.90
2019-01-16T17:45:29.040Z,4.50
2019-01-16T17:48:36.625Z,5.27
2019-01-16T17:51:25.543Z,5.47
2019-01-16T17:54:07.265Z,5.23
2019-01-16T17:56:55.284Z,5.00
2019-01-16T17:59:43.207Z,6.13
2019-01-16T18:02:33.561Z,5.43
2019-01-16T18:05:42.398Z,5.37
2019-01-16T18:08:41.663Z,5.37
2019-01-16T18:11:42.931Z,5.50
2019-01-16T18:14:32.276Z,5.37
2019-01-16T18:17:21.510Z,5.23
2019-01-16T18:20:16.850Z,5.27
2019-01-16T18:23:18.197Z,5.30
2019-01-16T18:26:22.769Z,5.90
2019-01-16T18:29:14.571Z,6.17
2019-01-16T18:32:17.127Z,5.97
2019-01-16T18:34:57.438Z,5.67
2019-01-16T18:37:36.866Z,6.23
2019-01-16T18:40:38.666Z,6.07
2019-01-16T18:43:26.771Z,6.20
2019-01-16T18:46:25.054Z,6.23
2019-01-16T18:49:04.894Z,6.10
2019-01-16T18:51:56.894Z,6.07
2019-01-16T18:54:55.500Z,5.73
2019-01-16T18:57:53.980Z,6.07
2019-01-16T19:00:49.027Z,6.50
2019-01-16T19:03:44.309Z,6.13
2019-01-16T19:06:51.758Z,6.37
2019-01-16T19:09:35.387Z,6.50
2019-01-16T19:12:39.923Z,6.13
2019-01-16T19:15:39.226Z,6.73
2019-01-16T19:18:37.861Z,6.50
2019-01-16T19:21:28.091Z,6.63
2019-01-16T19:24:16.336Z,6.70
2019-01-16T19:27:11.946Z,7.07
2019-01-16T19:30:04.063Z,6.57
2019-01-16T19:33:02.378Z,6.97
2019-01-16T19:35:41.273Z,8.17
2019-01-16T19:38:25.873Z,7.83
2019-01-16T19:41:17.973Z,7.43
2019-01-16T19:44:19.594Z,7.40
2019-01-16T19:47:24.277Z,7.43
2019-01-16T19:50:25.904Z,7.30
2019-01-16T19:53:06.167Z,7.90
2019-01-16T19:55:54.326Z,7.50
2019-01-16T19:58:42.358Z,7.80
2019-01-16T20:01:28.971Z,7.33
2019-01-16T20:04:17.059Z,7.73
2019-01-16T20:07:12.180Z,7.67
2019-01-16T20:10:13.359Z,8.07
2019-01-16T20:13:08.626Z,7.53
2019-01-16T20:15:56.218Z,6.70
2019-01-16T20:18:45.522Z,6.40
2019-01-16T20:21:53.231Z,6.70
2019-01-16T20:24:41.054Z,6.33
2019-01-16T20:27:30.205Z,6.17
2019-01-16T20:30:22.539Z,6.67
2019-01-16T20:33:10.835Z,6.53
2019-01-16T20:35:58.842Z,6.63
2019-01-16T20:39:01.255Z,6.80
2019-01-16T20:41:51.270Z,7.57
2019-01-16T20:44:35.827Z,7.17
2019-01-16T20:50:36.370Z,7.30
2019-01-16T20:53:28.464Z,7.27
2019-01-16T20:56:16.481Z,7.30
2019-01-16T20:59:04.901Z,8.00
2019-01-16T21:01:53.012Z,8.17
2019-01-16T21:04:51.400Z,7.50
2019-01-16T21:07:26.948Z,7.97
2019-01-16T21:10:10.294Z,8.07
2019-01-16T21:12:58.529Z,7.80
2019-01-16T21:15:51.913Z,8.20
2019-01-16T21:18:48.936Z,7.90
2019-01-16T21:21:34.977Z,8.50
2019-01-16T21:24:27.390Z,8.50
2019-01-16T21:27:07.744Z,8.07
2019-01-16T21:29:55.881Z,7.70
2019-01-16T21:32:51.691Z,7.80
2019-01-16T21:35:33.697Z,7.20
2019-01-16T21:38:23.141Z,7.60
2019-01-16T21:41:09.192Z,7.67
2019-01-16T21:44:08.450Z,7.73
2019-01-16T21:47:00.974Z,8.00
2019-01-16T21:49:59.420Z,8.33
2019-01-16T21:52:41.923Z,8.07
2019-01-16T21:55:36.622Z,7.97
2019-01-16T21:58:25.112Z,8.30
2019-01-16T22:01:17.603Z,8.73
2019-01-16T22:04:22.198Z,8.40
2019-01-16T22:07:14.298Z,8.23
2019-01-16T22:10:14.989Z,8.97
2019-01-16T22:13:10.531Z,8.13
2019-01-16T22:16:18.142Z,8.63
2019-01-16T22:19:08.822Z,7.50
2019-01-16T22:22:01.226Z,7.60
2019-01-16T22:24:53.999Z,7.53
2019-01-16T22:27:49.286Z,8.73
2019-01-16T22:30:31.622Z,8.20
2019-01-16T22:33:19.094Z,8.80
2019-01-16T22:36:11.611Z,8.30
2019-01-16T22:38:59.460Z,8.40
2019-01-16T22:41:35.585Z,8.87
2019-01-16T22:44:23.969Z,8.53
2019-01-16T22:47:17.322Z,8.27
2019-01-16T22:50:21.789Z,8.50
2019-01-16T22:53:11.079Z,8.37
2019-01-16T22:56:06.134Z,8.63
2019-01-16T22:59:01.142Z,7.63
2019-01-16T23:01:49.406Z,7.80
2019-01-16T23:05:10.028Z,7.97
2019-01-16T23:07:50.911Z,7.97
2019-01-16T23:10:47.705Z,7.60
2019-01-16T23:13:27.522Z,7.10
2019-01-16T23:16:15.262Z,7.27
2019-01-16T23:19:23.047Z,7.83
2019-01-16T23:22:21.687Z,6.70
2019-01-16T23:25:06.035Z,7.37
2019-01-16T23:28:05.225Z,6.53
2019-01-16T23:30:45.600Z,7.63
2019-01-16T23:33:33.650Z,6.97
2019-01-16T23:36:29.456Z,6.63
2019-01-16T23:39:24.690Z,6.87
2019-01-16T23:42:20.295Z,6.57
2019-01-16T23:45:09.494Z,7.03
2019-01-16T23:48:05.330Z,6.63
2019-01-16T23:50:53.457Z,6.37
2019-01-16T23:53:56.264Z,6.50
2019-01-16T23:56:41.122Z,5.50
2019-01-16T23:59:26.919Z,6.00
